YPKG/KGI METAR and TAF weather

Enter ICAO airport designator
Station Type Date Time Source
YPKG METAR 2022/06/28 10:00 UTC NOAA

YPKG 281000Z AUTO 15006KT 9999 // NCD 13/03 Q1027 RF00.0/000.0


Station Type Date Time Source
YPKG Decoded METAR 2022/06/28 10:00 UTC NOAA

Kalgoorlie Boulder Amo, Australia (YPKG) 30-47S 121-27E 370M
Jun 28, 2022 - 06:00 AM EDT / 2022.06.28 1000 UTC
Wind: from the SSE (150 degrees) at 7 MPH (6 KT):0
Visibility: greater than 7 mile(s):0
Temperature: 55 F (13 C)
Dew Point: 37 F (3 C)
Relative Humidity: 50%
Pressure (altimeter): 30.33 in. Hg (1027 hPa)
ob: YPKG 281000Z AUTO 15006KT 9999 // NCD 13/03 Q1027 RF00.0/000.0
cycle: 10

Station Type Date Time Source
YPKG TAF 2022/06/28 06:00 UTC NOAA

TAF YPKG 280502Z 2806/2906 15008KT CAVOK
FM282200 14006KT 9999 BKN020
BECMG 2900/2901 13010KT 9999 SCT030

Example: see airport list